메인 페이지
METAR-TAF:

METAR-TAF

공항 :

무르만스크, 러시아

위도: 68-58N, 경도: 033-03E, 고도: 51m

현재 날씨관측

예보는 36분 전, 04:00시(UTC)에 발표되었습니다.
남남동4kt
온도 9°C
습도 61%
기압 1022 hPa
시정 10km 이상
1500m 미만 상공 구름 및 적란운 없음

METAR: ULMM 220400Z 15002MPS CAVOK 09/02 Q1022 R31/090070 NOSIG RMK QFE759

시각: 07:36 (04:36 UTC)

예보

예보는 2 시간 41분 전, 01:55시(UTC)에 발표되었습니다.
예보 대상 시간: 22일 03시부터 23일 03시까지 (UTC)
남남동6kt, 순간 최대 풍속 16kt
시정 10km 이상
고도 1500ft 상공 구름 많음
일시적
22일 03시부터 22일 10시까지 (UTC)
남서6kt, 순간 최대 풍속 16kt
고도 1500ft 상공 구름 많음, 적란운.
약한소나기
전환 중
22일 10시부터 22일 12시까지 (UTC)
서남서6kt, 순간 최대 풍속 16kt
일시적
22일 12시부터 22일 16시까지 (UTC)
10kt, 순간 최대 풍속 19kt
고도 1500ft 상공 구름 많음, 적란운.
약한소나기
일시적
22일 16시부터 23일 03시까지 (UTC)
12kt, 순간 최대 풍속 23kt
시정: 3100m
고도 1100ft 상공 구름 많음, 적란운.
약한소나기

TAF: ULMM 220155Z 2203/2303 16003G08MPS 9999 BKN015 TEMPO 2203/2210 22003G08MPS -SHRA BKN015CB BECMG 2210/2212 24003G08MPS TEMPO 2212/2216 27005G10MPS -SHRA BKN015CB TEMPO 2216/2303 35006G12MPS 3100 -SHRA BKN011CB

4,000개 이상의 공항 관측 자료 및 예보 (METAR 및 TAF 보고).

지도상에서 검색 가능한 기상관측소가 노란 점과 빨간 점으로 표시되어 있습니다.

기상관측소 명을 보려면 표시 위로 마우스를 이동하세요.

날씨 관측과 예보를 보려면 클릭하세요.

지도 변경 : 확대하려면 엑스 표시가 있는 녹색 버튼, 축소하려면 빼기 표시가 있는 녹색 버튼, 다음 페이지의 지도를 보려면 녹색 화살표를 클릭하세요.


METAR-TAF: